Daytona Beach, Florida
Current Conditions -  °F | °C
As of 9:53 AM on Friday 24 Oct 2014 (Local Time) from KDAB Reporting Station
Few Clouds Few Clouds  
Wind Chill: 22°   Ceiling: Unl
Heat Index: 22°   Visibility: 10mi
Dew Point: 14°   Wind: 6mph
Humidity: 61%   Direction: 350°N
Pressure: 30.02"   Gusts: NA
Location:  29.2°N, 81.04°W
Report Text: KDAB 241353Z 35005KT 10SM FEW045 FEW140 22/14 A3002 RMK AO2 SLP164 T02220144
Loading
Personal Weather Stations






























Interactive Weather Map
Tropical Storm Tracking
New forecast layout! Learn more

10-Day Weather Forecast

Advertisements
Track Severe Weather on mobile